Latest Coastal Weather Observations for Hamilton Island

IDQ60701

Issued at 8:42 am EST Thursday 21 October 2021 (issued every 10 minutes, with the page automatically refreshed every 10 minutes)

About coastal observations | Map of coastal stations | Coastal observations for QLD | Marine services | Other Formats
Station Details ID: 033106 Name: HAMILTON ISLAND AIRPORT Lat: -20.37 Lon: 148.95 Height: 58.66 m
Data from the previous 72 hours. | See also: Recent months at Hamilton Island
Date/Time
EST
Wind Sea
Height
m
Swell Vis
km
Cloud Weather Temp
°C
Press
MSL
hPa
Rain since
9am
mm
Dir  Spd
kts
Gust
kts
Height
m
Period
s
Dir
21/08:30am NNW 15 19 - - - - 10 Mostly clear - 25.5 1012.0 8.6
21/08:00am NNW 13 16 - - - - 10 Partly cloudy - 25.2 1012.0 8.6
21/07:30am N 10 14 - - - - 10 Partly cloudy - 25.2 1011.7 8.6
21/07:00am NNW 9 11 - - - - 10 - - 24.4 1011.5 8.6
21/06:30am N 8 12 - - - - 10 - - 23.9 1011.3 8.6
21/06:00am N 8 11 - - - - 10 - - 23.6 1010.9 8.6
21/05:30am N 9 11 - - - - 10 - - 23.2 1010.8 8.6
21/05:00am NNW 9 12 - - - - 10 - - 23.0 1010.8 8.6
21/04:30am NNW 5 6 - - - - 10 - - 22.6 1010.9 8.6
21/04:00am NW 5 6 - - - - 10 Partly cloudy - 22.8 1011.1 8.6
21/03:30am NNW 4 5 - - - - 10 - - 22.8 1011.0 8.6
21/03:00am NW 4 5 - - - - 10 - - 22.7 1011.1 8.6
21/02:30am N 3 5 - - - - 10 Partly cloudy - 22.9 1011.0 8.6
21/02:00am N 5 8 - - - - 10 Partly cloudy - 23.2 1011.0 8.6
21/01:30am NW 3 4 - - - - 10 Partly cloudy - 22.8 1011.4 8.6
21/01:00am W 4 5 - - - - 10 Cloudy - 22.9 1012.0 8.6
21/12:30am CALM 0 2 - - - - 10 Partly cloudy - 22.9 1012.5 8.6
21/12:00am NNE 7 11 - - - - 10 - - 22.9 1012.7 8.6
 
Date/Time
EST
Wind Sea
Height
m
Swell Vis
km
Cloud Weather Temp
°C
Press
MSL
hPa
Rain since
9am
mm
Dir  Spd
kts
Gust
kts
Height
m
Period
s
Dir
20/11:30pm NNE 8 13 - - - - 10 Partly cloudy - 22.8 1012.8 8.6
20/11:00pm NNE 11 14 - - - - 10 Partly cloudy - 22.6 1013.5 8.6
20/10:30pm NE 12 18 - - - - 10 Partly cloudy - 23.0 1013.6 8.6
20/10:23pm NE 13 17 - - - - 10 Partly cloudy - 23.1 1013.7 8.6
20/10:00pm ENE 16 20 - - - - 10 Partly cloudy - 22.9 1013.8 8.6
20/09:30pm NE 14 17 - - - - 10 Partly cloudy - 23.0 1013.4 8.6
20/09:29pm NE 14 17 - - - - 10 Partly cloudy - 23.0 1013.4 8.6
20/09:06pm ENE 14 18 - - - - 10 Partly cloudy - 23.0 1013.3 8.6
20/09:00pm ENE 13 18 - - - - 10 Cloudy - 22.9 1013.1 8.6
20/08:45pm ENE 13 17 - - - - 10 Partly cloudy - 22.9 1013.0 8.6
20/08:38pm ENE 13 17 - - - - 10 Partly cloudy - 22.9 1013.0 8.6
20/08:30pm ENE 14 17 - - - - 10 Partly cloudy - 22.8 1012.9 8.6
20/08:15pm ENE 12 15 - - - - 10 Partly cloudy - 22.8 1012.9 8.6
20/08:14pm ENE 12 15 - - - - 10 Partly cloudy - 22.8 1012.9 8.6
20/08:00pm ENE 11 14 - - - - 10 Partly cloudy - 22.7 1012.7 8.6
20/07:30pm NE 10 18 - - - - 10 Cloudy - 22.6 1012.2 8.6
20/07:01pm NE 16 22 - - - - 10 Partly cloudy - 22.2 1011.8 8.6
20/07:00pm NE 15 22 - - - - 10 Partly cloudy - 22.2 1011.8 8.6
20/06:30pm NNE 15 21 - - - - 10 Partly cloudy - 22.3 1011.1 8.6
20/06:04pm NNE 18 28 - - - - 10 Partly cloudy - 22.3 1010.5 8.6
20/06:00pm NNE 21 28 - - - - 10 Mostly cloudy Thunderstorm 22.4 1010.5 8.6
20/05:39pm NNE 23 37 - - - - 10 Partly cloudy - 21.8 1010.3 8.6
20/05:36pm NNE 21 37 - - - - 10 Partly cloudy - 21.9 1010.3 8.6
20/05:33pm NNE 22 42 - - - - 10 Partly cloudy - 22.0 1010.4 8.6
20/05:30pm NNE 25 42 - - - - 10 Partly cloudy - 21.9 1010.3 8.6
20/05:28pm NNE 27 42 - - - - 10 Partly cloudy - 21.7 1010.3 8.6
20/05:21pm NNE 22 39 - - - - 10 Partly cloudy - 21.6 1009.9 8.6
20/05:16pm NNE 23 35 - - - - 10 Partly cloudy - 21.6 1010.1 8.6
20/05:15pm NNE 23 37 - - - - 10 Partly cloudy - 21.3 1010.2 8.6
20/05:05pm NE 31 45 - - - - 6 Partly cloudy - 19.6 1009.1 8.6
20/05:04pm NE 31 45 - - - - 5 Partly cloudy - 19.7 1009.4 8.6
20/05:00pm ENE 35 47 - - - - 4 Partly cloudy - 19.6 1008.6 8.6
20/04:57pm ENE 33 47 - - - - 4 Partly cloudy - 20.2 1008.9 8.4
20/04:52pm ENE 22 47 - - - - 6 Partly cloudy - 20.6 1008.6 6.4
20/04:50pm ENE 17 43 - - - - 8 Partly cloudy - 22.4 1009.3 5.2
20/04:49pm ENE 15 31 - - - - 8 Partly cloudy - 23.1 1009.3 4.8
20/04:48pm ENE 16 31 - - - - 9 Partly cloudy - 22.3 1009.2 4.6
20/04:46pm E 16 31 - - - - 9 Partly cloudy - 21.4 1009.8 4.2
20/04:35pm ENE 11 26 - - - - 5 Partly cloudy - 23.5 1010.0 3.8
20/04:30pm NE 9 11 - - - - 5 Partly cloudy - 25.4 1009.3 3.2
20/04:28pm NE 9 11 - - - - 6 Partly cloudy - 25.4 1009.1 3.0
20/04:16pm ENE 13 18 - - - - 8 Partly cloudy - 25.8 1009.7 2.0
20/04:00pm N 16 23 - - - - 10 Partly cloudy - 25.8 1007.7 0.4
20/03:30pm NNW 15 20 - - - - 10 Partly cloudy - 26.9 1008.3 0.0
20/03:21pm N 17 22 - - - - 10 Partly cloudy - 27.1 1007.9 0.0
20/03:11pm NNW 18 29 - - - - 10 Partly cloudy - 27.2 1007.9 0.0
20/03:10pm NNW 19 29 - - - - 10 Partly cloudy - 27.1 1007.9 0.0
20/03:00pm NNW 21 30 - - - - 10 Mostly cloudy Thunderstorm 26.9 1007.7 0.0
20/02:30pm NNW 19 28 - - - - 10 Partly cloudy - 27.9 1007.6 0.0
20/02:00pm NW 26 32 - - - - 10 - - 28.6 1008.0 0.0
20/01:30pm NW 24 30 - - - - 10 - - 28.3 1008.7 0.0
20/01:00pm NW 25 31 - - - - 10 - - 27.8 1009.0 0.0
20/12:30pm NW 22 27 - - - - 10 - - 28.1 1009.7 0.0
20/12:00pm NW 21 25 - - - - 10 - - 28.0 1010.3 0.0
20/11:30am NW 18 22 - - - - 10 - - 28.0 1011.1 0.0
20/11:00am NW 16 20 - - - - 10 - - 28.0 1012.0 0.0
20/10:30am NW 13 17 - - - - 10 - - 28.2 1012.9 0.0
20/10:00am NW 14 18 - - - - 10 - - 27.6 1013.1 0.0
20/09:30am NNW 12 16 - - - - 10 Partly cloudy - 27.9 1013.5 0.0
20/09:00am NNW 14 16 - - - - 10 Mostly cloudy - 27.1 1013.5 0.2
20/08:30am NNW 13 15 - - - - 10 Partly cloudy - 26.7 1013.6 0.2
20/08:00am NNW 12 16 - - - - 10 Partly cloudy - 26.0 1013.4 0.2
20/07:30am NNW 9 11 - - - - 10 - - 25.7 1013.0 0.2
20/07:00am N 6 7 - - - - 10 - - 25.8 1012.4 0.2
20/06:30am N 8 11 - - - - 10 - - 25.3 1012.2 0.2
20/06:00am NNW 11 14 - - - - 10 Mostly cloudy - 24.8 1011.5 0.2
20/05:30am WNW 16 18 - - - - 10 - - 24.9 1011.1 0.2
20/05:00am NW 16 20 - - - - 10 - - 24.8 1010.6 0.2
20/04:30am NW 16 20 - - - - 10 - - 24.8 1010.4 0.2
20/04:00am NW 14 17 - - - - 10 - - 24.9 1010.4 0.2
20/03:30am NW 14 20 - - - - 10 - - 24.9 1010.1 0.2
20/03:00am NW 15 19 - - - - 10 Mostly cloudy - 24.5 1010.1 0.2
20/02:30am NW 15 20 - - - - 10 - - 24.4 1010.1 0.2
20/02:12am NW 13 19 - - - - 10 Partly cloudy - 24.4 1010.2 0.2
20/02:00am NW 17 23 - - - - 10 Partly cloudy - 24.5 1010.5 0.2
20/01:30am NW 15 19 - - - - 10 Partly cloudy - 24.6 1010.7 0.2
20/01:00am NW 11 15 - - - - 10 Partly cloudy - 24.7 1011.2 0.2
20/12:30am NW 12 15 - - - - 10 Partly cloudy - 24.9 1011.8 0.2
20/12:27am NW 10 15 - - - - 10 Partly cloudy - 24.8 1011.8 0.2
20/12:00am NE 4 5 - - - - 10 Cloudy - 24.8 1011.9 0.2
 
Date/Time
EST
Wind Sea
Height
m
Swell Vis
km
Cloud Weather Temp
°C
Press
MSL
hPa
Rain since
9am
mm
Dir  Spd
kts
Gust
kts
Height
m
Period
s
Dir
19/11:30pm NNW 9 11 - - - - 10 - - 25.1 1012.3 0.2
19/11:00pm WNW 9 11 - - - - 10 - - 24.9 1013.3 0.2
19/10:30pm NW 8 9 - - - - 10 - - 24.5 1013.4 0.2
19/10:00pm NNW 8 9 - - - - 10 - - 24.2 1013.1 0.2
19/09:30pm NW 5 7 - - - - 10 - - 24.3 1013.1 0.2
19/09:00pm NW 8 11 - - - - 10 Mostly clear - 24.3 1013.0 0.2
19/08:30pm NW 8 10 - - - - 10 - - 24.3 1013.2 0.2
19/08:00pm NNW 12 15 - - - - 10 - - 24.3 1012.6 0.2
19/07:30pm NW 12 17 - - - - 10 - - 23.6 1012.7 0.2
19/07:00pm NNW 10 16 - - - - 10 Partly cloudy - 23.4 1012.8 0.2
19/06:30pm NNW 17 22 - - - - 10 Partly cloudy - 23.3 1013.0 0.2
19/06:20pm NNW 22 32 - - - - 10 Partly cloudy - 23.1 1012.7 0.2
19/06:00pm NW 23 29 - - - - 10 Mostly cloudy Thunderstorm 23.8 1013.0 0.2
19/05:46pm NW 27 46 - - - - 10 Partly cloudy - 23.3 1012.8 0.2
19/05:41pm NW 23 46 - - - - 10 Partly cloudy - 23.4 1012.0 0.2
19/05:40pm NW 21 46 - - - - 10 Partly cloudy - 24.2 1012.6 0.2
19/05:30pm NNW 19 24 - - - - 10 - - 25.2 1012.8 0.2
19/05:00pm NW 21 26 - - - - 10 Partly cloudy - 25.3 1011.6 0.2
19/04:56pm NW 20 29 - - - - 10 Partly cloudy - 25.3 1011.7 0.2
19/04:48pm NNW 22 32 - - - - 10 Partly cloudy - 25.0 1011.4 0.2
19/04:40pm NW 25 32 - - - - 10 Partly cloudy - 25.3 1010.5 0.2
19/04:30pm NW 23 27 - - - - 10 Partly cloudy - 25.4 1012.6 0.2
19/04:20pm NW 21 26 - - - - 10 Partly cloudy - 25.3 1012.5 0.2
19/04:11pm NW 19 24 - - - - 10 Cloudy - 25.5 1011.8 0.2
19/04:00pm WNW 15 19 - - - - 10 Partly cloudy - 25.7 1012.4 0.2
19/03:30pm N 11 15 - - - - 10 Partly cloudy - 27.0 1011.5 0.2
19/03:00pm N 3 7 - - - - 10 Cloudy Thunderstorm 27.1 1011.8 0.2
19/02:30pm NNW 11 18 - - - - 10 Partly cloudy - 26.7 1011.9 0.2
19/02:00pm NW 16 21 - - - - 10 Partly cloudy - 27.4 1011.9 0.2
19/01:30pm NW 17 20 - - - - 10 - - 28.9 1012.2 0.2
19/01:00pm NW 16 21 - - - - 10 - - 29.5 1013.2 0.2
19/12:30pm NW 16 19 - - - - 10 - - 28.7 1013.8 0.2
19/12:00pm NW 16 19 - - - - 10 - - 29.0 1014.3 0.2
19/11:30am NNW 15 19 - - - - 10 - - 29.0 1014.6 0.2
19/11:00am NNW 14 18 - - - - 10 - - 28.5 1015.0 0.2
19/10:30am NNW 14 17 - - - - 10 - - 28.1 1015.2 0.2
19/10:00am NW 15 19 - - - - 10 - - 27.6 1015.2 0.0
19/09:30am NW 17 23 - - - - 10 - - 27.1 1015.2 0.0
19/09:00am NW 20 24 - - - - 10 Mostly clear - 26.4 1014.9 0.0
19/08:30am NW 18 23 - - - - 10 Partly cloudy - 26.4 1014.4 0.0
19/08:00am NNW 17 21 - - - - 10 - - 26.1 1014.3 0.0
19/07:30am NW 16 21 - - - - 10 Partly cloudy - 25.6 1014.2 0.0
19/07:00am NW 16 21 - - - - 10 Partly cloudy - 25.2 1014.1 0.0
19/06:47am NW 15 18 - - - - 10 Partly cloudy - 25.2 1013.9 0.0
19/06:30am NNW 14 18 - - - - 10 Partly cloudy - 25.1 1013.8 0.0
19/06:00am NNW 14 16 - - - - 10 Cloudy - 24.7 1013.4 0.0
19/05:40am NNW 12 16 - - - - 10 Partly cloudy - 24.6 1013.5 0.0
19/05:30am NW 15 19 - - - - 10 Partly cloudy - 24.6 1013.4 0.0
19/05:00am NW 17 21 - - - - 10 - - 24.6 1012.9 0.0
19/04:30am NW 17 20 - - - - 10 Partly cloudy - 24.6 1012.6 0.0
19/04:00am NW 18 23 - - - - 10 - - 24.7 1012.5 0.0
19/03:30am NW 16 20 - - - - 10 Partly cloudy - 24.7 1012.3 0.0
19/03:00am NW 17 22 - - - - 10 Mostly clear - 24.7 1012.5 0.0
19/02:30am NNW 16 21 - - - - 10 Partly cloudy - 24.8 1012.7 0.0
19/02:18am NW 14 19 - - - - 10 Partly cloudy - 24.8 1013.0 0.0
19/02:00am NW 17 21 - - - - 10 Partly cloudy - 25.0 1013.1 0.0
19/01:30am NW 14 19 - - - - 10 Partly cloudy - 24.9 1013.3 0.0
19/01:01am NNW 12 15 - - - - 10 Partly cloudy - 25.0 1013.6 0.0
19/01:00am NNW 12 15 - - - - 10 Partly cloudy - 25.0 1013.7 0.0
19/12:30am NNW 14 19 - - - - 10 Partly cloudy - 25.0 1013.8 0.0
19/12:00am NNW 16 19 - - - - 10 Partly cloudy - 25.1 1014.0 0.0
 
Date/Time
EST
Wind Sea
Height
m
Swell Vis
km
Cloud Weather Temp
°C
Press
MSL
hPa
Rain since
9am
mm
Dir  Spd
kts
Gust
kts
Height
m
Period
s
Dir
18/11:30pm NNW 13 18 - - - - 10 Partly cloudy - 25.2 1014.5 0.0
18/11:19pm NNW 14 19 - - - - 10 Partly cloudy - 25.1 1014.5 0.0
18/11:00pm NNW 16 21 - - - - 10 Partly cloudy - 25.2 1014.5 0.0
18/10:42pm NNW 11 16 - - - - 10 Partly cloudy - 25.2 1014.8 0.0
18/10:30pm NNW 14 18 - - - - 10 Partly cloudy - 25.2 1014.8 0.0
18/10:00pm NW 16 19 - - - - 10 - - 25.2 1014.5 0.0
18/09:30pm NW 17 22 - - - - 10 - - 25.3 1014.3 0.0
18/09:00pm NNW 18 24 - - - - 10 - - 25.3 1013.7 0.0
18/08:30pm NW 22 27 - - - - 10 - - 25.3 1013.1 0.0
18/08:00pm NW 24 28 - - - - 10 - - 25.4 1012.6 0.0
18/07:30pm NW 24 30 - - - - 10 - - 25.5 1012.3 0.0
18/07:00pm NW 22 30 - - - - 10 - - 25.5 1012.0 0.0
18/06:30pm NW 24 28 - - - - 10 - - 25.5 1011.6 0.0
18/06:00pm NW 24 31 - - - - 10 - - 25.6 1011.0 0.0
18/05:30pm NW 27 34 - - - - 10 - - 25.8 1010.7 0.0
18/05:00pm NW 28 35 - - - - 10 Partly cloudy - 25.9 1010.3 0.0
18/04:43pm NW 23 33 - - - - 10 Partly cloudy - 25.6 1010.0 0.0
18/04:30pm NW 26 32 - - - - 10 Partly cloudy - 25.9 1010.1 0.0
18/04:12pm NW 27 34 - - - - 10 Partly cloudy - 26.2 1009.9 0.0
18/04:02pm NW 25 32 - - - - 10 - - 26.1 1010.2 0.0
18/04:00pm NW 25 32 - - - - 10 - - 26.2 1010.2 0.0
18/03:30pm NNW 23 28 - - - - 10 Partly cloudy - 26.7 1009.9 0.0
18/03:00pm NNW 23 29 - - - - 10 Cloudy - 26.6 1010.3 0.0
18/02:30pm NW 22 27 - - - - 10 - - 27.4 1010.5 0.0
18/02:00pm NW 24 29 - - - - 10 - - 28.7 1011.0 0.0
18/01:30pm NW 22 28 - - - - 10 - - 28.6 1011.5 0.0
18/01:00pm NNW 21 25 - - - - 10 - - 29.1 1012.2 0.0
18/12:30pm NNW 19 25 - - - - 10 - - 29.1 1013.0 0.0
18/12:00pm NNW 22 26 - - - - 10 - - 28.5 1013.6 0.0
18/11:30am NW 19 23 - - - - 10 - - 28.4 1014.2 0.0
18/11:00am NW 18 22 - - - - 10 - - 27.7 1014.6 0.0
18/10:30am NNW 19 23 - - - - 10 - - 27.6 1014.8 0.0
18/10:00am NW 16 20 - - - - 10 - - 27.5 1014.9 0.0
18/09:30am NW 17 23 - - - - 10 - - 26.9 1015.3 0.0
18/09:00am NW 17 20 - - - - 10 - - 26.8 1015.3 0.0

Other formats

Comma delimited format used in spreadsheet applications
http://www.bom.gov.au/fwo/IDQ60701/IDQ60701.94368.axf

JavaScript Object Notation format (JSON) in row-major order
http://www.bom.gov.au/fwo/IDQ60701/IDQ60701.94368.json

Data quality

Most of these data are generated automatically and are frequently updated. Quality checks on data are not normally performed. It is possible for incorrect values to appear. Refer to information at About Latest Weather Observations and please check the disclaimer before using these data.